sensor_id;sensor_type;location;lat;lon;timestamp;P1;durP1;ratioP1;P2;durP2;ratioP2
142;SDS011;63667;49.046;8.468;2023-05-10T00:01:53;3.30;;;2.90;;
142;SDS011;63667;49.046;8.468;2023-05-10T00:04:20;3.70;;;3.30;;
142;SDS011;63667;49.046;8.468;2023-05-10T00:06:46;3.80;;;3.13;;
142;SDS011;63667;49.046;8.468;2023-05-10T00:09:13;4.13;;;3.40;;
142;SDS011;63667;49.046;8.468;2023-05-10T00:11:39;4.50;;;2.70;;
142;SDS011;63667;49.046;8.468;2023-05-10T00:14:06;4.23;;;2.87;;
142;SDS011;63667;49.046;8.468;2023-05-10T00:16:32;2.90;;;2.63;;
142;SDS011;63667;49.046;8.468;2023-05-10T00:18:59;6.43;;;3.00;;
142;SDS011;63667;49.046;8.468;2023-05-10T00:21:25;3.00;;;2.80;;
142;SDS011;63667;49.046;8.468;2023-05-10T00:23:53;15.43;;;3.00;;
142;SDS011;63667;49.046;8.468;2023-05-10T00:26:20;4.23;;;2.83;;
142;SDS011;63667;49.046;8.468;2023-05-10T00:28:46;2.70;;;2.40;;
142;SDS011;63667;49.046;8.468;2023-05-10T00:31:14;4.90;;;2.93;;
142;SDS011;63667;49.046;8.468;2023-05-10T00:33:40;7.37;;;3.00;;
142;SDS011;63667;49.046;8.468;2023-05-10T00:36:07;13.10;;;2.77;;
142;SDS011;63667;49.046;8.468;2023-05-10T00:38:33;2.80;;;2.60;;
142;SDS011;63667;49.046;8.468;2023-05-10T00:41:00;4.40;;;2.80;;
142;SDS011;63667;49.046;8.468;2023-05-10T00:43:26;5.27;;;2.80;;
142;SDS011;63667;49.046;8.468;2023-05-10T00:45:54;4.50;;;2.80;;
142;SDS011;63667;49.046;8.468;2023-05-10T00:48:20;2.80;;;2.60;;
142;SDS011;63667;49.046;8.468;2023-05-10T00:50:47;3.70;;;2.77;;
142;SDS011;63667;49.046;8.468;2023-05-10T00:53:14;4.63;;;2.67;;
142;SDS011;63667;49.046;8.468;2023-05-10T00:55:41;4.33;;;2.50;;
142;SDS011;63667;49.046;8.468;2023-05-10T00:58:07;7.40;;;2.70;;
142;SDS011;63667;49.046;8.468;2023-05-10T01:00:34;7.43;;;3.37;;
142;SDS011;63667;49.046;8.468;2023-05-10T01:03:01;6.30;;;3.10;;
142;SDS011;63667;49.046;8.468;2023-05-10T01:05:28;3.40;;;2.90;;
142;SDS011;63667;49.046;8.468;2023-05-10T01:07:55;12.57;;;3.10;;
142;SDS011;63667;49.046;8.468;2023-05-10T01:13:35;4.50;;;3.27;;
142;SDS011;63667;49.046;8.468;2023-05-10T01:16:03;3.87;;;3.20;;
142;SDS011;63667;49.046;8.468;2023-05-10T01:18:34;4.77;;;3.17;;
142;SDS011;63667;49.046;8.468;2023-05-10T01:21:07;3.53;;;3.33;;
142;SDS011;63667;49.046;8.468;2023-05-10T01:23:42;3.93;;;3.50;;
142;SDS011;63667;49.046;8.468;2023-05-10T01:33:44;5.33;;;3.70;;
142;SDS011;63667;49.046;8.468;2023-05-10T01:38:44;6.13;;;3.70;;
142;SDS011;63667;49.046;8.468;2023-05-10T01:43:53;5.97;;;4.20;;
142;SDS011;63667;49.046;8.468;2023-05-10T01:46:22;7.43;;;4.37;;
142;SDS011;63667;49.046;8.468;2023-05-10T01:48:54;4.13;;;3.67;;
142;SDS011;63667;49.046;8.468;2023-05-10T01:51:22;5.37;;;4.20;;
142;SDS011;63667;49.046;8.468;2023-05-10T01:53:49;4.90;;;4.10;;
142;SDS011;63667;49.046;8.468;2023-05-10T01:56:18;6.67;;;4.43;;
142;SDS011;63667;49.046;8.468;2023-05-10T01:58:46;6.43;;;4.50;;
142;SDS011;63667;49.046;8.468;2023-05-10T02:01:13;5.70;;;4.50;;
142;SDS011;63667;49.046;8.468;2023-05-10T02:03:41;8.13;;;4.80;;
142;SDS011;63667;49.046;8.468;2023-05-10T02:06:09;5.70;;;4.77;;
142;SDS011;63667;49.046;8.468;2023-05-10T02:08:36;8.40;;;4.43;;
142;SDS011;63667;49.046;8.468;2023-05-10T02:11:03;5.57;;;4.20;;
142;SDS011;63667;49.046;8.468;2023-05-10T02:13:31;7.07;;;4.80;;
142;SDS011;63667;49.046;8.468;2023-05-10T02:15:59;6.57;;;5.00;;
142;SDS011;63667;49.046;8.468;2023-05-10T02:18:27;8.20;;;5.00;;
142;SDS011;63667;49.046;8.468;2023-05-10T02:20:55;10.33;;;4.93;;
142;SDS011;63667;49.046;8.468;2023-05-10T02:23:22;8.13;;;5.33;;
142;SDS011;63667;49.046;8.468;2023-05-10T02:25:49;7.83;;;4.90;;
142;SDS011;63667;49.046;8.468;2023-05-10T02:28:17;8.00;;;5.97;;
142;SDS011;63667;49.046;8.468;2023-05-10T02:30:44;6.47;;;5.37;;
142;SDS011;63667;49.046;8.468;2023-05-10T02:33:10;12.53;;;5.60;;
142;SDS011;63667;49.046;8.468;2023-05-10T02:35:37;8.47;;;5.93;;
142;SDS011;63667;49.046;8.468;2023-05-10T02:38:04;10.23;;;5.70;;
142;SDS011;63667;49.046;8.468;2023-05-10T02:40:32;9.83;;;6.67;;
142;SDS011;63667;49.046;8.468;2023-05-10T02:42:59;10.27;;;6.40;;
142;SDS011;63667;49.046;8.468;2023-05-10T02:45:27;16.13;;;7.20;;
142;SDS011;63667;49.046;8.468;2023-05-10T02:47:55;9.23;;;5.93;;
142;SDS011;63667;49.046;8.468;2023-05-10T02:50:22;9.57;;;6.40;;
142;SDS011;63667;49.046;8.468;2023-05-10T02:52:51;9.73;;;6.27;;
142;SDS011;63667;49.046;8.468;2023-05-10T02:55:25;11.37;;;6.63;;
142;SDS011;63667;49.046;8.468;2023-05-10T02:57:54;10.13;;;6.43;;
142;SDS011;63667;49.046;8.468;2023-05-10T03:00:24;16.20;;;7.20;;
142;SDS011;63667;49.046;8.468;2023-05-10T03:02:50;11.63;;;7.30;;
142;SDS011;63667;49.046;8.468;2023-05-10T03:05:17;12.43;;;8.00;;
142;SDS011;63667;49.046;8.468;2023-05-10T03:07:43;14.77;;;8.20;;
142;SDS011;63667;49.046;8.468;2023-05-10T03:10:10;12.03;;;8.50;;
142;SDS011;63667;49.046;8.468;2023-05-10T03:15:33;11.70;;;7.57;;
142;SDS011;63667;49.046;8.468;2023-05-10T03:18:15;14.90;;;7.87;;
142;SDS011;63667;49.046;8.468;2023-05-10T03:20:48;15.50;;;7.80;;
142;SDS011;63667;49.046;8.468;2023-05-10T03:25:45;11.20;;;7.27;;
142;SDS011;63667;49.046;8.468;2023-05-10T03:28:12;17.50;;;9.50;;
142;SDS011;63667;49.046;8.468;2023-05-10T03:30:40;15.07;;;8.30;;
142;SDS011;63667;49.046;8.468;2023-05-10T03:33:07;12.03;;;8.03;;
142;SDS011;63667;49.046;8.468;2023-05-10T03:35:34;19.27;;;8.50;;
142;SDS011;63667;49.046;8.468;2023-05-10T03:38:00;13.83;;;6.70;;
142;SDS011;63667;49.046;8.468;2023-05-10T03:40:28;15.57;;;7.53;;
142;SDS011;63667;49.046;8.468;2023-05-10T03:43:00;11.50;;;6.93;;
142;SDS011;63667;49.046;8.468;2023-05-10T03:45:26;12.37;;;7.10;;
142;SDS011;63667;49.046;8.468;2023-05-10T03:47:53;16.83;;;8.00;;
142;SDS011;63667;49.046;8.468;2023-05-10T03:50:20;11.90;;;7.20;;
142;SDS011;63667;49.046;8.468;2023-05-10T03:52:47;15.77;;;8.00;;
142;SDS011;63667;49.046;8.468;2023-05-10T03:55:13;10.10;;;6.93;;
142;SDS011;63667;49.046;8.468;2023-05-10T03:57:40;13.33;;;8.03;;
142;SDS011;63667;49.046;8.468;2023-05-10T04:00:06;12.50;;;8.03;;
142;SDS011;63667;49.046;8.468;2023-05-10T04:02:33;14.97;;;7.93;;
142;SDS011;63667;49.046;8.468;2023-05-10T04:04:59;14.13;;;8.10;;
142;SDS011;63667;49.046;8.468;2023-05-10T04:07:26;17.37;;;7.60;;
142;SDS011;63667;49.046;8.468;2023-05-10T04:09:52;11.43;;;7.27;;
142;SDS011;63667;49.046;8.468;2023-05-10T04:12:19;10.83;;;7.40;;
142;SDS011;63667;49.046;8.468;2023-05-10T04:14:45;10.20;;;6.90;;
142;SDS011;63667;49.046;8.468;2023-05-10T04:17:12;13.40;;;7.00;;
142;SDS011;63667;49.046;8.468;2023-05-10T04:19:38;12.27;;;6.63;;
142;SDS011;63667;49.046;8.468;2023-05-10T04:22:04;10.77;;;7.10;;
142;SDS011;63667;49.046;8.468;2023-05-10T04:24:31;8.90;;;6.30;;
142;SDS011;63667;49.046;8.468;2023-05-10T04:26:57;13.23;;;6.50;;
142;SDS011;63667;49.046;8.468;2023-05-10T04:29:24;8.00;;;6.30;;
142;SDS011;63667;49.046;8.468;2023-05-10T04:31:50;10.40;;;6.30;;
142;SDS011;63667;49.046;8.468;2023-05-10T04:34:17;10.47;;;6.20;;
142;SDS011;63667;49.046;8.468;2023-05-10T04:36:43;8.50;;;6.10;;
142;SDS011;63667;49.046;8.468;2023-05-10T04:39:11;8.70;;;6.50;;
142;SDS011;63667;49.046;8.468;2023-05-10T04:41:39;6.93;;;5.63;;
142;SDS011;63667;49.046;8.468;2023-05-10T04:44:05;10.63;;;5.97;;
142;SDS011;63667;49.046;8.468;2023-05-10T04:46:32;9.40;;;6.13;;
142;SDS011;63667;49.046;8.468;2023-05-10T04:48:58;11.03;;;5.87;;
142;SDS011;63667;49.046;8.468;2023-05-10T04:51:24;9.07;;;6.00;;
142;SDS011;63667;49.046;8.468;2023-05-10T04:53:51;9.40;;;6.03;;
142;SDS011;63667;49.046;8.468;2023-05-10T04:56:17;8.17;;;6.13;;
142;SDS011;63667;49.046;8.468;2023-05-10T04:58:44;9.43;;;6.00;;
142;SDS011;63667;49.046;8.468;2023-05-10T05:01:11;11.53;;;5.80;;
142;SDS011;63667;49.046;8.468;2023-05-10T05:03:37;11.70;;;5.80;;
142;SDS011;63667;49.046;8.468;2023-05-10T05:06:04;9.03;;;6.10;;
142;SDS011;63667;49.046;8.468;2023-05-10T05:08:30;9.13;;;6.30;;
142;SDS011;63667;49.046;8.468;2023-05-10T05:10:57;9.20;;;5.80;;
142;SDS011;63667;49.046;8.468;2023-05-10T05:13:24;9.77;;;6.47;;
142;SDS011;63667;49.046;8.468;2023-05-10T05:15:51;8.80;;;6.03;;
142;SDS011;63667;49.046;8.468;2023-05-10T05:18:17;8.30;;;5.90;;
142;SDS011;63667;49.046;8.468;2023-05-10T05:20:44;10.37;;;6.03;;
142;SDS011;63667;49.046;8.468;2023-05-10T05:23:10;9.70;;;6.47;;
142;SDS011;63667;49.046;8.468;2023-05-10T05:25:37;9.23;;;6.27;;
142;SDS011;63667;49.046;8.468;2023-05-10T05:28:03;8.33;;;6.53;;
142;SDS011;63667;49.046;8.468;2023-05-10T05:30:29;9.80;;;6.60;;
142;SDS011;63667;49.046;8.468;2023-05-10T05:32:56;14.57;;;6.50;;
142;SDS011;63667;49.046;8.468;2023-05-10T05:35:22;11.73;;;7.37;;
142;SDS011;63667;49.046;8.468;2023-05-10T05:37:49;7.93;;;6.40;;
142;SDS011;63667;49.046;8.468;2023-05-10T05:40:15;11.93;;;6.90;;
142;SDS011;63667;49.046;8.468;2023-05-10T05:42:41;9.30;;;6.60;;
142;SDS011;63667;49.046;8.468;2023-05-10T05:45:08;8.77;;;6.37;;
142;SDS011;63667;49.046;8.468;2023-05-10T05:47:38;19.90;;;7.43;;
142;SDS011;63667;49.046;8.468;2023-05-10T05:50:05;7.97;;;5.63;;
142;SDS011;63667;49.046;8.468;2023-05-10T05:52:32;11.50;;;7.00;;
142;SDS011;63667;49.046;8.468;2023-05-10T05:54:58;11.73;;;6.73;;
142;SDS011;63667;49.046;8.468;2023-05-10T05:57:24;8.60;;;6.40;;
142;SDS011;63667;49.046;8.468;2023-05-10T05:59:52;10.93;;;6.37;;
142;SDS011;63667;49.046;8.468;2023-05-10T06:02:18;7.23;;;5.70;;
142;SDS011;63667;49.046;8.468;2023-05-10T06:04:44;8.27;;;6.27;;
142;SDS011;63667;49.046;8.468;2023-05-10T06:07:11;10.67;;;6.00;;
142;SDS011;63667;49.046;8.468;2023-05-10T06:09:38;11.93;;;5.77;;
142;SDS011;63667;49.046;8.468;2023-05-10T06:12:04;7.10;;;4.90;;
142;SDS011;63667;49.046;8.468;2023-05-10T06:14:31;8.60;;;5.10;;
142;SDS011;63667;49.046;8.468;2023-05-10T06:16:57;6.67;;;4.40;;
142;SDS011;63667;49.046;8.468;2023-05-10T06:19:25;7.67;;;4.83;;
142;SDS011;63667;49.046;8.468;2023-05-10T06:21:51;10.90;;;4.47;;
142;SDS011;63667;49.046;8.468;2023-05-10T06:24:18;4.53;;;3.83;;
142;SDS011;63667;49.046;8.468;2023-05-10T06:26:44;7.03;;;4.33;;
142;SDS011;63667;49.046;8.468;2023-05-10T06:29:10;4.80;;;3.80;;
142;SDS011;63667;49.046;8.468;2023-05-10T06:31:37;5.07;;;4.30;;
142;SDS011;63667;49.046;8.468;2023-05-10T06:34:03;5.60;;;3.90;;
142;SDS011;63667;49.046;8.468;2023-05-10T06:36:30;5.70;;;3.73;;
142;SDS011;63667;49.046;8.468;2023-05-10T06:38:56;5.37;;;4.00;;
142;SDS011;63667;49.046;8.468;2023-05-10T06:41:23;4.60;;;4.00;;
142;SDS011;63667;49.046;8.468;2023-05-10T06:43:49;4.07;;;3.70;;
142;SDS011;63667;49.046;8.468;2023-05-10T06:46:16;7.37;;;3.83;;
142;SDS011;63667;49.046;8.468;2023-05-10T06:48:42;5.40;;;3.40;;
142;SDS011;63667;49.046;8.468;2023-05-10T06:51:08;4.07;;;3.87;;
142;SDS011;63667;49.046;8.468;2023-05-10T06:53:35;7.00;;;3.37;;
142;SDS011;63667;49.046;8.468;2023-05-10T06:56:01;5.77;;;3.20;;
142;SDS011;63667;49.046;8.468;2023-05-10T06:58:28;4.73;;;3.27;;
142;SDS011;63667;49.046;8.468;2023-05-10T07:01:01;3.37;;;3.10;;
142;SDS011;63667;49.046;8.468;2023-05-10T07:03:27;3.23;;;3.07;;
142;SDS011;63667;49.046;8.468;2023-05-10T07:05:53;4.03;;;2.90;;
142;SDS011;63667;49.046;8.468;2023-05-10T07:08:20;3.30;;;3.10;;
142;SDS011;63667;49.046;8.468;2023-05-10T07:10:46;4.40;;;2.90;;
142;SDS011;63667;49.046;8.468;2023-05-10T07:13:13;3.53;;;3.10;;
142;SDS011;63667;49.046;8.468;2023-05-10T07:15:39;4.50;;;2.80;;
142;SDS011;63667;49.046;8.468;2023-05-10T07:18:06;3.50;;;2.90;;
142;SDS011;63667;49.046;8.468;2023-05-10T07:20:32;5.07;;;3.00;;
142;SDS011;63667;49.046;8.468;2023-05-10T07:22:59;3.60;;;3.40;;
142;SDS011;63667;49.046;8.468;2023-05-10T07:25:25;3.40;;;3.03;;
142;SDS011;63667;49.046;8.468;2023-05-10T07:27:52;4.30;;;3.17;;
142;SDS011;63667;49.046;8.468;2023-05-10T07:30:18;5.03;;;3.07;;
142;SDS011;63667;49.046;8.468;2023-05-10T07:32:45;6.13;;;3.23;;
142;SDS011;63667;49.046;8.468;2023-05-10T07:35:11;3.13;;;2.93;;
142;SDS011;63667;49.046;8.468;2023-05-10T07:37:38;3.27;;;3.07;;
142;SDS011;63667;49.046;8.468;2023-05-10T07:40:05;3.37;;;2.83;;
142;SDS011;63667;49.046;8.468;2023-05-10T07:42:31;5.13;;;2.77;;
142;SDS011;63667;49.046;8.468;2023-05-10T07:44:58;3.17;;;2.70;;
142;SDS011;63667;49.046;8.468;2023-05-10T07:47:24;2.90;;;2.70;;
142;SDS011;63667;49.046;8.468;2023-05-10T07:49:51;7.27;;;3.37;;
142;SDS011;63667;49.046;8.468;2023-05-10T07:52:18;2.97;;;2.77;;
142;SDS011;63667;49.046;8.468;2023-05-10T07:54:44;3.70;;;2.80;;
142;SDS011;63667;49.046;8.468;2023-05-10T07:57:11;3.83;;;3.00;;
142;SDS011;63667;49.046;8.468;2023-05-10T07:59:39;3.00;;;2.80;;
142;SDS011;63667;49.046;8.468;2023-05-10T08:02:06;2.90;;;2.77;;
142;SDS011;63667;49.046;8.468;2023-05-10T08:04:33;3.37;;;2.70;;
142;SDS011;63667;49.046;8.468;2023-05-10T08:06:59;5.40;;;2.43;;
142;SDS011;63667;49.046;8.468;2023-05-10T08:09:25;3.17;;;2.60;;
142;SDS011;63667;49.046;8.468;2023-05-10T08:11:52;4.63;;;2.90;;
142;SDS011;63667;49.046;8.468;2023-05-10T08:14:18;2.80;;;2.70;;
142;SDS011;63667;49.046;8.468;2023-05-10T08:16:46;3.50;;;2.70;;
142;SDS011;63667;49.046;8.468;2023-05-10T08:19:13;2.60;;;2.40;;
142;SDS011;63667;49.046;8.468;2023-05-10T08:21:39;4.73;;;2.60;;
142;SDS011;63667;49.046;8.468;2023-05-10T08:24:07;3.17;;;2.40;;
142;SDS011;63667;49.046;8.468;2023-05-10T08:26:33;10.07;;;2.40;;
142;SDS011;63667;49.046;8.468;2023-05-10T08:29:00;2.40;;;2.10;;
142;SDS011;63667;49.046;8.468;2023-05-10T08:31:26;3.50;;;2.37;;
142;SDS011;63667;49.046;8.468;2023-05-10T08:33:53;2.60;;;2.43;;
142;SDS011;63667;49.046;8.468;2023-05-10T08:36:19;3.77;;;2.63;;
142;SDS011;63667;49.046;8.468;2023-05-10T08:38:49;2.40;;;2.20;;
142;SDS011;63667;49.046;8.468;2023-05-10T08:41:16;2.77;;;2.50;;
142;SDS011;63667;49.046;8.468;2023-05-10T08:43:43;2.90;;;2.70;;
142;SDS011;63667;49.046;8.468;2023-05-10T08:46:12;2.77;;;2.50;;
142;SDS011;63667;49.046;8.468;2023-05-10T08:48:39;2.77;;;2.40;;
142;SDS011;63667;49.046;8.468;2023-05-10T08:51:05;2.90;;;2.30;;
142;SDS011;63667;49.046;8.468;2023-05-10T08:53:33;3.60;;;2.50;;
142;SDS011;63667;49.046;8.468;2023-05-10T08:56:02;3.30;;;2.37;;
142;SDS011;63667;49.046;8.468;2023-05-10T08:58:29;2.70;;;2.40;;
142;SDS011;63667;49.046;8.468;2023-05-10T09:00:56;5.33;;;2.60;;
142;SDS011;63667;49.046;8.468;2023-05-10T09:03:23;3.20;;;2.60;;
142;SDS011;63667;49.046;8.468;2023-05-10T09:05:49;2.70;;;2.50;;
142;SDS011;63667;49.046;8.468;2023-05-10T09:08:16;3.30;;;3.10;;
142;SDS011;63667;49.046;8.468;2023-05-10T09:10:44;2.77;;;2.57;;
142;SDS011;63667;49.046;8.468;2023-05-10T09:13:12;3.27;;;3.07;;
142;SDS011;63667;49.046;8.468;2023-05-10T09:15:40;4.63;;;2.80;;
142;SDS011;63667;49.046;8.468;2023-05-10T09:18:07;2.90;;;2.70;;
142;SDS011;63667;49.046;8.468;2023-05-10T09:20:33;4.50;;;2.70;;
142;SDS011;63667;49.046;8.468;2023-05-10T09:23:00;3.17;;;2.43;;
142;SDS011;63667;49.046;8.468;2023-05-10T09:25:26;2.70;;;2.50;;
142;SDS011;63667;49.046;8.468;2023-05-10T09:27:53;3.20;;;3.00;;
142;SDS011;63667;49.046;8.468;2023-05-10T09:30:29;2.50;;;2.30;;
142;SDS011;63667;49.046;8.468;2023-05-10T09:32:57;4.13;;;2.80;;
142;SDS011;63667;49.046;8.468;2023-05-10T09:35:24;3.00;;;2.80;;
142;SDS011;63667;49.046;8.468;2023-05-10T09:37:52;3.07;;;2.40;;
142;SDS011;63667;49.046;8.468;2023-05-10T09:40:22;3.03;;;2.70;;
142;SDS011;63667;49.046;8.468;2023-05-10T09:45:36;5.03;;;2.20;;
142;SDS011;63667;49.046;8.468;2023-05-10T09:48:02;4.07;;;2.30;;
142;SDS011;63667;49.046;8.468;2023-05-10T09:50:31;3.97;;;1.90;;
142;SDS011;63667;49.046;8.468;2023-05-10T09:53:00;3.73;;;1.90;;
142;SDS011;63667;49.046;8.468;2023-05-10T09:55:38;2.20;;;2.00;;
142;SDS011;63667;49.046;8.468;2023-05-10T09:58:05;2.30;;;2.00;;
142;SDS011;63667;49.046;8.468;2023-05-10T10:00:36;2.60;;;2.10;;
142;SDS011;63667;49.046;8.468;2023-05-10T10:03:03;2.40;;;2.20;;
142;SDS011;63667;49.046;8.468;2023-05-10T10:05:34;2.10;;;2.00;;
142;SDS011;63667;49.046;8.468;2023-05-10T10:08:03;2.57;;;2.07;;
142;SDS011;63667;49.046;8.468;2023-05-10T10:10:30;2.77;;;1.87;;
142;SDS011;63667;49.046;8.468;2023-05-10T10:12:58;3.50;;;2.40;;
142;SDS011;63667;49.046;8.468;2023-05-10T10:15:26;3.20;;;2.00;;
142;SDS011;63667;49.046;8.468;2023-05-10T10:17:53;3.47;;;2.10;;
142;SDS011;63667;49.046;8.468;2023-05-10T10:20:20;7.30;;;2.30;;
142;SDS011;63667;49.046;8.468;2023-05-10T10:22:47;3.30;;;2.20;;
142;SDS011;63667;49.046;8.468;2023-05-10T10:25:15;6.07;;;2.63;;
142;SDS011;63667;49.046;8.468;2023-05-10T10:30:25;4.50;;;2.00;;
142;SDS011;63667;49.046;8.468;2023-05-10T10:33:04;3.90;;;2.30;;
142;SDS011;63667;49.046;8.468;2023-05-10T10:35:33;3.00;;;2.20;;
142;SDS011;63667;49.046;8.468;2023-05-10T10:38:00;3.17;;;2.40;;
142;SDS011;63667;49.046;8.468;2023-05-10T10:40:27;2.67;;;2.47;;
142;SDS011;63667;49.046;8.468;2023-05-10T10:42:54;3.10;;;2.40;;
142;SDS011;63667;49.046;8.468;2023-05-10T10:45:21;3.40;;;2.50;;
142;SDS011;63667;49.046;8.468;2023-05-10T10:47:48;4.17;;;2.53;;
142;SDS011;63667;49.046;8.468;2023-05-10T10:50:15;4.83;;;2.97;;
142;SDS011;63667;49.046;8.468;2023-05-10T10:52:45;3.57;;;3.00;;
142;SDS011;63667;49.046;8.468;2023-05-10T10:55:12;3.80;;;2.90;;
142;SDS011;63667;49.046;8.468;2023-05-10T11:02:59;3.60;;;3.33;;
142;SDS011;63667;49.046;8.468;2023-05-10T11:07:56;4.20;;;3.20;;
142;SDS011;63667;49.046;8.468;2023-05-10T11:10:23;4.57;;;3.37;;
142;SDS011;63667;49.046;8.468;2023-05-10T11:12:54;6.23;;;3.70;;
142;SDS011;63667;49.046;8.468;2023-05-10T11:15:33;4.33;;;3.37;;
142;SDS011;63667;49.046;8.468;2023-05-10T11:17:59;9.97;;;3.30;;
142;SDS011;63667;49.046;8.468;2023-05-10T11:20:33;6.83;;;3.40;;
142;SDS011;63667;49.046;8.468;2023-05-10T11:23:11;3.60;;;3.17;;
142;SDS011;63667;49.046;8.468;2023-05-10T11:25:41;5.57;;;3.37;;
142;SDS011;63667;49.046;8.468;2023-05-10T11:28:11;4.80;;;3.17;;
142;SDS011;63667;49.046;8.468;2023-05-10T11:30:38;3.80;;;3.20;;
142;SDS011;63667;49.046;8.468;2023-05-10T11:33:06;3.90;;;3.20;;
142;SDS011;63667;49.046;8.468;2023-05-10T11:35:38;4.50;;;3.40;;
142;SDS011;63667;49.046;8.468;2023-05-10T11:38:06;4.10;;;3.00;;
142;SDS011;63667;49.046;8.468;2023-05-10T11:40:33;4.67;;;3.13;;
142;SDS011;63667;49.046;8.468;2023-05-10T11:42:59;5.07;;;3.07;;
142;SDS011;63667;49.046;8.468;2023-05-10T11:45:25;8.33;;;3.00;;
142;SDS011;63667;49.046;8.468;2023-05-10T11:47:54;3.27;;;2.93;;
142;SDS011;63667;49.046;8.468;2023-05-10T11:50:21;4.67;;;3.03;;
142;SDS011;63667;49.046;8.468;2023-05-10T11:52:54;3.70;;;3.33;;
142;SDS011;63667;49.046;8.468;2023-05-10T11:55:21;3.33;;;3.10;;
142;SDS011;63667;49.046;8.468;2023-05-10T11:57:51;3.07;;;2.80;;
142;SDS011;63667;49.046;8.468;2023-05-10T12:00:17;6.07;;;2.90;;
142;SDS011;63667;49.046;8.468;2023-05-10T12:02:43;5.37;;;2.70;;
142;SDS011;63667;49.046;8.468;2023-05-10T12:05:10;3.90;;;2.77;;
142;SDS011;63667;49.046;8.468;2023-05-10T12:07:36;3.30;;;2.50;;
142;SDS011;63667;49.046;8.468;2023-05-10T12:10:07;2.30;;;2.10;;
142;SDS011;63667;49.046;8.468;2023-05-10T12:12:37;5.13;;;2.60;;
142;SDS011;63667;49.046;8.468;2023-05-10T12:15:04;2.73;;;2.00;;
142;SDS011;63667;49.046;8.468;2023-05-10T12:17:31;3.50;;;2.30;;
142;SDS011;63667;49.046;8.468;2023-05-10T12:20:17;4.90;;;2.27;;
142;SDS011;63667;49.046;8.468;2023-05-10T12:22:49;6.00;;;2.10;;
142;SDS011;63667;49.046;8.468;2023-05-10T12:25:16;6.40;;;2.50;;
142;SDS011;63667;49.046;8.468;2023-05-10T12:27:53;4.60;;;2.47;;
142;SDS011;63667;49.046;8.468;2023-05-10T12:30:20;3.60;;;2.80;;
142;SDS011;63667;49.046;8.468;2023-05-10T12:32:47;3.43;;;2.57;;
142;SDS011;63667;49.046;8.468;2023-05-10T12:35:13;3.17;;;2.50;;
142;SDS011;63667;49.046;8.468;2023-05-10T12:37:42;2.77;;;2.57;;
142;SDS011;63667;49.046;8.468;2023-05-10T12:40:09;2.53;;;2.40;;
142;SDS011;63667;49.046;8.468;2023-05-10T12:42:36;3.70;;;2.50;;
142;SDS011;63667;49.046;8.468;2023-05-10T12:45:06;3.77;;;2.60;;
142;SDS011;63667;49.046;8.468;2023-05-10T12:47:33;2.40;;;2.10;;
142;SDS011;63667;49.046;8.468;2023-05-10T12:50:00;3.37;;;2.50;;
142;SDS011;63667;49.046;8.468;2023-05-10T12:52:28;2.77;;;2.43;;
142;SDS011;63667;49.046;8.468;2023-05-10T12:54:54;4.37;;;2.47;;
142;SDS011;63667;49.046;8.468;2023-05-10T12:57:21;3.00;;;2.47;;
142;SDS011;63667;49.046;8.468;2023-05-10T12:59:47;5.93;;;2.50;;
142;SDS011;63667;49.046;8.468;2023-05-10T13:02:14;9.00;;;2.60;;
142;SDS011;63667;49.046;8.468;2023-05-10T13:04:41;2.70;;;2.60;;
142;SDS011;63667;49.046;8.468;2023-05-10T13:07:07;5.13;;;2.80;;
142;SDS011;63667;49.046;8.468;2023-05-10T13:09:34;2.57;;;2.30;;
142;SDS011;63667;49.046;8.468;2023-05-10T13:12:00;2.90;;;2.70;;
142;SDS011;63667;49.046;8.468;2023-05-10T13:14:27;2.83;;;2.10;;
142;SDS011;63667;49.046;8.468;2023-05-10T13:16:53;4.10;;;2.30;;
142;SDS011;63667;49.046;8.468;2023-05-10T13:19:20;2.80;;;2.30;;
142;SDS011;63667;49.046;8.468;2023-05-10T13:21:46;3.27;;;2.13;;
142;SDS011;63667;49.046;8.468;2023-05-10T13:24:12;4.20;;;2.30;;
142;SDS011;63667;49.046;8.468;2023-05-10T13:26:42;2.80;;;2.33;;
142;SDS011;63667;49.046;8.468;2023-05-10T13:29:09;2.40;;;2.23;;
142;SDS011;63667;49.046;8.468;2023-05-10T13:31:35;3.80;;;2.60;;
142;SDS011;63667;49.046;8.468;2023-05-10T13:34:02;4.50;;;2.10;;
142;SDS011;63667;49.046;8.468;2023-05-10T13:36:28;2.97;;;2.10;;
142;SDS011;63667;49.046;8.468;2023-05-10T13:38:54;2.13;;;1.90;;
142;SDS011;63667;49.046;8.468;2023-05-10T13:41:22;9.70;;;2.07;;
142;SDS011;63667;49.046;8.468;2023-05-10T13:43:49;3.33;;;1.90;;
142;SDS011;63667;49.046;8.468;2023-05-10T13:46:15;2.30;;;2.10;;
142;SDS011;63667;49.046;8.468;2023-05-10T13:48:42;2.13;;;1.90;;
142;SDS011;63667;49.046;8.468;2023-05-10T13:51:08;5.10;;;2.23;;
142;SDS011;63667;49.046;8.468;2023-05-10T13:53:34;2.20;;;2.00;;
142;SDS011;63667;49.046;8.468;2023-05-10T13:56:01;2.50;;;2.00;;
142;SDS011;63667;49.046;8.468;2023-05-10T13:58:28;3.07;;;2.30;;
142;SDS011;63667;49.046;8.468;2023-05-10T14:00:55;2.57;;;2.20;;
142;SDS011;63667;49.046;8.468;2023-05-10T14:03:21;2.27;;;2.07;;
142;SDS011;63667;49.046;8.468;2023-05-10T14:05:48;2.00;;;1.90;;
142;SDS011;63667;49.046;8.468;2023-05-10T14:08:14;2.57;;;2.17;;
142;SDS011;63667;49.046;8.468;2023-05-10T14:10:41;3.80;;;1.93;;
142;SDS011;63667;49.046;8.468;2023-05-10T14:13:07;4.63;;;2.10;;
142;SDS011;63667;49.046;8.468;2023-05-10T14:15:34;3.07;;;2.30;;
142;SDS011;63667;49.046;8.468;2023-05-10T14:18:00;3.27;;;2.10;;
142;SDS011;63667;49.046;8.468;2023-05-10T14:20:27;2.20;;;2.10;;
142;SDS011;63667;49.046;8.468;2023-05-10T14:22:53;2.43;;;1.80;;
142;SDS011;63667;49.046;8.468;2023-05-10T14:25:20;3.70;;;2.10;;
142;SDS011;63667;49.046;8.468;2023-05-10T14:27:46;2.27;;;1.90;;
142;SDS011;63667;49.046;8.468;2023-05-10T14:30:13;5.90;;;2.00;;
142;SDS011;63667;49.046;8.468;2023-05-10T14:32:40;2.57;;;2.10;;
142;SDS011;63667;49.046;8.468;2023-05-10T14:35:06;4.73;;;2.13;;
142;SDS011;63667;49.046;8.468;2023-05-10T14:37:33;2.50;;;2.30;;
142;SDS011;63667;49.046;8.468;2023-05-10T14:40:00;2.20;;;2.10;;
142;SDS011;63667;49.046;8.468;2023-05-10T14:42:27;3.63;;;2.03;;
142;SDS011;63667;49.046;8.468;2023-05-10T14:44:53;3.43;;;2.30;;
142;SDS011;63667;49.046;8.468;2023-05-10T14:47:21;3.10;;;2.20;;
142;SDS011;63667;49.046;8.468;2023-05-10T14:49:47;2.70;;;1.90;;
142;SDS011;63667;49.046;8.468;2023-05-10T14:52:14;2.47;;;2.07;;
142;SDS011;63667;49.046;8.468;2023-05-10T14:54:41;3.50;;;2.10;;
142;SDS011;63667;49.046;8.468;2023-05-10T14:57:07;3.93;;;2.20;;
142;SDS011;63667;49.046;8.468;2023-05-10T14:59:34;9.00;;;2.67;;
142;SDS011;63667;49.046;8.468;2023-05-10T15:02:01;4.10;;;2.30;;
142;SDS011;63667;49.046;8.468;2023-05-10T15:04:28;2.43;;;2.20;;
142;SDS011;63667;49.046;8.468;2023-05-10T15:06:55;4.40;;;2.30;;
142;SDS011;63667;49.046;8.468;2023-05-10T15:09:24;5.50;;;2.20;;
142;SDS011;63667;49.046;8.468;2023-05-10T15:11:53;6.67;;;2.10;;
142;SDS011;63667;49.046;8.468;2023-05-10T15:14:19;5.10;;;2.30;;
142;SDS011;63667;49.046;8.468;2023-05-10T15:16:46;2.30;;;2.10;;
142;SDS011;63667;49.046;8.468;2023-05-10T15:19:12;5.60;;;2.17;;
142;SDS011;63667;49.046;8.468;2023-05-10T15:21:39;7.00;;;2.60;;
142;SDS011;63667;49.046;8.468;2023-05-10T15:24:08;2.83;;;2.20;;
142;SDS011;63667;49.046;8.468;2023-05-10T15:26:34;3.00;;;2.00;;
142;SDS011;63667;49.046;8.468;2023-05-10T15:29:01;2.40;;;2.10;;
142;SDS011;63667;49.046;8.468;2023-05-10T15:31:27;2.80;;;2.27;;
142;SDS011;63667;49.046;8.468;2023-05-10T15:33:57;2.30;;;2.07;;
142;SDS011;63667;49.046;8.468;2023-05-10T15:36:24;2.30;;;2.00;;
142;SDS011;63667;49.046;8.468;2023-05-10T15:38:51;2.30;;;1.80;;
142;SDS011;63667;49.046;8.468;2023-05-10T15:41:17;2.63;;;2.03;;
142;SDS011;63667;49.046;8.468;2023-05-10T15:43:44;2.30;;;2.00;;
142;SDS011;63667;49.046;8.468;2023-05-10T15:46:11;2.83;;;2.00;;
142;SDS011;63667;49.046;8.468;2023-05-10T15:48:37;4.87;;;2.17;;